Time,TemperatureF,DewpointF,PressureIn,WindDirection,WindDirectionDegrees,WindSpeedMPH,WindSpeedGustMPH,Humidity,HourlyPrecipIn,Conditions,Clouds,dailyrainin,SoftwareType,DateUTC
2013-06-28 00:57:00,72.3,64.1,29.04,WSW,248,0.0,0.0,75,0.00,,,0.00,WUHU21623XXSP,2013-06-28 05:57:00,
2013-06-28 01:57:00,70.7,63.3,29.03,WSW,248,0.0,0.0,77,0.00,,,0.00,WUHU21623XXSP,2013-06-28 06:57:00,
2013-06-28 02:57:00,69.8,62.4,29.02,WSW,248,0.0,0.0,77,0.00,,,0.00,WUHU21623XXSP,2013-06-28 07:57:00,
2013-06-28 03:57:00,68.7,61.3,29.01,WSW,248,0.0,0.0,77,0.00,,,0.00,WUHU21623XXSP,2013-06-28 08:57:00,
2013-06-28 04:57:00,68.0,60.6,29.00,West,270,0.0,0.0,77,0.00,,,0.00,WUHU21623XXSP,2013-06-28 09:57:00,
2013-06-28 05:52:00,67.6,59.8,29.01,WSW,247,0.0,0.0,76,0.00,,,0.00,WUHU21623XXSP,2013-06-28 10:52:00,
2013-06-28 05:57:00,67.6,59.8,29.01,WSW,247,0.0,0.0,76,0.00,,,0.00,WUHU21623XXSP,2013-06-28 10:57:00,
2013-06-28 06:02:00,67.8,60.0,29.02,WSW,247,0.0,0.0,76,0.00,,,0.00,WUHU21623XXSP,2013-06-28 11:02:00,
2013-06-28 06:07:00,67.6,59.8,29.02,SW,225,0.0,0.0,76,0.00,,,0.00,WUHU21623XXSP,2013-06-28 11:07:00,
2013-06-28 06:12:00,67.6,59.8,29.01,SW,225,0.0,0.0,76,0.00,,,0.00,WUHU21623XXSP,2013-06-28 11:12:00,
2013-06-28 06:17:00,67.6,59.8,29.02,WSW,247,0.0,0.0,76,0.00,,,0.00,WUHU21623XXSP,2013-06-28 11:17:00,
2013-06-28 06:22:00,67.6,59.8,29.02,WSW,247,0.0,0.0,76,0.00,,,0.00,WUHU21623XXSP,2013-06-28 11:22:00,
2013-06-28 06:27:00,67.6,59.8,29.02,WSW,247,0.0,0.0,76,0.00,,,0.00,WUHU21623XXSP,2013-06-28 11:27:00,
2013-06-28 06:32:00,67.6,59.8,29.02,WSW,247,0.0,0.0,76,0.00,,,0.00,WUHU21623XXSP,2013-06-28 11:32:00,
2013-06-28 06:37:00,67.8,60.0,29.02,West,270,0.0,0.0,76,0.00,,,0.00,WUHU21623XXSP,2013-06-28 11:37:00,
2013-06-28 06:42:00,67.8,60.0,29.02,WSW,247,0.0,0.0,76,0.00,,,0.00,WUHU21623XXSP,2013-06-28 11:42:00,
2013-06-28 06:47:00,67.8,60.0,29.02,West,270,0.0,0.0,76,0.00,,,0.00,WUHU21623XXSP,2013-06-28 11:47:00,
2013-06-28 06:52:00,68.4,60.4,29.02,West,270,0.0,0.0,76,0.00,,,0.00,WUHU21623XXSP,2013-06-28 11:52:00,
2013-06-28 06:57:00,68.5,60.3,29.02,West,270,0.0,0.0,75,0.00,,,0.00,WUHU21623XXSP,2013-06-28 11:57:00,
2013-06-28 07:02:00,68.7,60.5,29.02,West,270,0.0,0.0,75,0.00,,,0.00,WUHU21623XXSP,2013-06-28 12:02:00,
2013-06-28 07:07:00,69.1,60.4,29.02,West,270,0.0,0.0,74,0.00,,,0.00,WUHU21623XXSP,2013-06-28 12:07:00,
2013-06-28 07:12:00,69.6,60.9,29.02,West,270,0.0,0.0,74,0.00,,,0.00,WUHU21623XXSP,2013-06-28 12:12:00,
2013-06-28 07:17:00,69.8,61.1,29.02,West,270,0.0,0.0,74,0.00,,,0.00,WUHU21623XXSP,2013-06-28 12:17:00,
2013-06-28 07:22:00,70.2,61.2,29.02,West,270,0.0,0.0,74,0.00,,,0.00,WUHU21623XXSP,2013-06-28 12:22:00,
2013-06-28 07:27:00,70.3,61.6,29.03,West,270,0.0,0.0,73,0.00,,,0.00,WUHU21623XXSP,2013-06-28 12:27:00,
2013-06-28 07:32:00,70.5,61.4,29.03,West,270,0.0,0.0,73,0.00,,,0.00,WUHU21623XXSP,2013-06-28 12:32:00,
2013-06-28 07:37:00,70.7,62.0,29.03,West,270,0.0,0.0,74,0.00,,,0.00,WUHU21623XXSP,2013-06-28 12:37:00,
2013-06-28 07:42:00,71.4,62.3,29.02,West,270,0.0,0.0,73,0.00,,,0.00,WUHU21623XXSP,2013-06-28 12:42:00,
2013-06-28 07:47:00,71.4,62.3,29.03,West,270,0.0,0.0,73,0.00,,,0.00,WUHU21623XXSP,2013-06-28 12:47:00,
2013-06-28 07:52:00,71.8,62.7,29.02,West,270,0.0,0.0,72,0.00,,,0.00,WUHU21623XXSP,2013-06-28 12:52:00,
2013-06-28 07:57:00,72.1,62.6,29.03,West,270,0.0,0.0,72,0.00,,,0.00,WUHU21623XXSP,2013-06-28 12:57:00,
2013-06-28 08:02:00,72.5,63.0,29.03,West,270,0.0,0.0,72,0.00,,,0.00,WUHU21623XXSP,2013-06-28 13:02:00,
2013-06-28 08:07:00,73.0,63.2,29.03,WSW,247,0.0,0.0,71,0.00,,,0.00,WUHU21623XXSP,2013-06-28 13:07:00,
2013-06-28 08:12:00,73.2,63.3,29.03,West,270,0.0,0.0,71,0.00,,,0.00,WUHU21623XXSP,2013-06-28 13:12:00,
2013-06-28 08:17:00,73.6,63.3,29.03,NNE,22,0.0,0.0,70,0.00,,,0.00,WUHU21623XXSP,2013-06-28 13:17:00,
2013-06-28 08:22:00,73.9,63.2,29.03,NE,45,0.0,0.0,69,0.00,,,0.00,WUHU21623XXSP,2013-06-28 13:22:00,
2013-06-28 08:27:00,74.5,63.2,29.03,NE,45,0.0,0.0,68,0.00,,,0.00,WUHU21623XXSP,2013-06-28 13:27:00,
2013-06-28 08:32:00,74.7,63.2,29.03,NE,45,0.0,0.0,68,0.00,,,0.00,WUHU21623XXSP,2013-06-28 13:32:00,
2013-06-28 08:37:00,75.0,63.3,29.03,NNE,22,0.0,2.9,67,0.00,,,0.00,WUHU21623XXSP,2013-06-28 13:37:00,
2013-06-28 08:42:00,75.4,63.6,29.03,NNE,22,0.0,2.9,67,0.00,,,0.00,WUHU21623XXSP,2013-06-28 13:42:00,
2013-06-28 08:47:00,75.6,63.4,29.03,NE,45,0.0,0.0,66,0.00,,,0.00,WUHU21623XXSP,2013-06-28 13:47:00,
2013-06-28 08:52:00,75.9,63.3,29.02,NNE,22,0.0,0.0,65,0.00,,,0.00,WUHU21623XXSP,2013-06-28 13:52:00,
2013-06-28 08:57:00,76.1,63.4,29.03,NNE,22,0.0,0.0,65,0.00,,,0.00,WUHU21623XXSP,2013-06-28 13:57:00,
2013-06-28 09:02:00,76.3,63.2,29.02,NNE,22,0.0,0.0,64,0.00,,,0.00,WUHU21623XXSP,2013-06-28 14:02:00,
2013-06-28 09:07:00,76.6,63.1,29.03,NE,45,0.0,1.1,63,0.00,,,0.00,WUHU21623XXSP,2013-06-28 14:07:00,
2013-06-28 09:12:00,76.8,63.7,29.03,North,0,0.0,1.1,64,0.00,,,0.00,WUHU21623XXSP,2013-06-28 14:12:00,
2013-06-28 09:17:00,77.2,63.2,29.03,NNE,22,0.0,0.0,63,0.00,,,0.00,WUHU21623XXSP,2013-06-28 14:17:00,
2013-06-28 09:22:00,77.4,63.3,29.02,NNE,22,0.0,6.5,62,0.00,,,0.00,WUHU21623XXSP,2013-06-28 14:22:00,
2013-06-28 09:27:00,77.5,63.5,29.02,NE,45,0.0,6.5,62,0.00,,,0.00,WUHU21623XXSP,2013-06-28 14:27:00,
2013-06-28 09:32:00,77.7,63.7,29.02,NNE,22,0.0,9.2,62,0.00,,,0.00,WUHU21623XXSP,2013-06-28 14:32:00,
2013-06-28 09:37:00,77.9,63.8,29.02,NW,315,0.0,9.2,62,0.00,,,0.00,WUHU21623XXSP,2013-06-28 14:37:00,
2013-06-28 09:42:00,78.1,63.6,29.02,North,0,0.0,0.0,61,0.00,,,0.00,WUHU21623XXSP,2013-06-28 14:42:00,
2013-06-28 09:47:00,78.3,63.8,29.02,NNE,22,0.9,0.9,61,0.00,,,0.00,WUHU21623XXSP,2013-06-28 14:47:00,
2013-06-28 09:52:00,78.6,64.1,29.01,NNW,337,0.0,0.9,61,0.00,,,0.00,WUHU21623XXSP,2013-06-28 14:52:00,
2013-06-28 09:57:00,78.6,64.1,29.01,NE,45,6.9,6.9,60,0.00,,,0.00,WUHU21623XXSP,2013-06-28 14:57:00,
2013-06-28 10:02:00,79.0,64.0,29.01,North,0,0.0,6.9,60,0.00,,,0.00,WUHU21623XXSP,2013-06-28 15:02:00,
2013-06-28 10:07:00,79.5,64.5,29.01,North,0,0.0,6.9,60,0.00,,,0.00,WUHU21623XXSP,2013-06-28 15:07:00,
2013-06-28 10:12:00,79.7,64.7,29.01,North,0,0.0,7.2,60,0.00,,,0.00,WUHU21623XXSP,2013-06-28 15:12:00,
2013-06-28 10:17:00,80.2,65.2,29.01,NE,45,0.0,7.2,60,0.00,,,0.00,WUHU21623XXSP,2013-06-28 15:17:00,
2013-06-28 10:22:00,80.4,64.8,29.01,East,90,0.0,0.0,59,0.00,,,0.00,WUHU21623XXSP,2013-06-28 15:22:00,
2013-06-28 10:27:00,80.6,63.9,29.01,NE,45,0.0,0.0,57,0.00,,,0.00,WUHU21623XXSP,2013-06-28 15:27:00,
2013-06-28 10:32:00,80.6,63.9,29.01,NNE,22,0.0,0.0,57,0.00,,,0.00,WUHU21623XXSP,2013-06-28 15:32:00,
2013-06-28 10:37:00,80.6,63.4,29.01,NNE,22,4.0,4.0,56,0.00,,,0.00,WUHU21623XXSP,2013-06-28 15:37:00,
2013-06-28 10:42:00,80.8,63.6,29.01,NNW,337,4.0,4.0,56,0.00,,,0.00,WUHU21623XXSP,2013-06-28 15:42:00,
2013-06-28 10:47:00,80.8,63.6,29.01,NNE,22,3.4,4.0,56,0.00,,,0.00,WUHU21623XXSP,2013-06-28 15:47:00,
2013-06-28 10:52:00,81.1,63.9,29.01,NNE,22,5.8,5.8,56,0.00,,,0.00,WUHU21623XXSP,2013-06-28 15:52:00,
2013-06-28 10:57:00,81.3,64.0,29.01,North,0,1.3,5.8,56,0.00,,,0.00,WUHU21623XXSP,2013-06-28 15:57:00,
2013-06-28 11:02:00,81.5,63.7,29.01,North,0,3.1,3.1,55,0.00,,,0.00,WUHU21623XXSP,2013-06-28 16:02:00,
2013-06-28 11:07:00,81.7,64.4,29.01,NNE,22,1.6,3.1,56,0.00,,,0.00,WUHU21623XXSP,2013-06-28 16:07:00,
2013-06-28 11:12:00,82.0,64.2,29.01,NNE,22,3.8,3.8,55,0.00,,,0.00,WUHU21623XXSP,2013-06-28 16:12:00,
2013-06-28 11:17:00,82.2,63.3,29.01,North,0,4.3,4.3,53,0.00,,,0.00,WUHU21623XXSP,2013-06-28 16:17:00,
2013-06-28 11:22:00,82.4,62.9,29.01,NNE,22,4.5,9.8,52,0.00,,,0.00,WUHU21623XXSP,2013-06-28 16:22:00,
2013-06-28 11:27:00,82.2,62.2,29.01,NNW,337,0.0,9.8,51,0.00,,,0.00,WUHU21623XXSP,2013-06-28 16:27:00,
2013-06-28 11:32:00,82.4,62.2,29.01,West,270,0.7,7.2,51,0.00,,,0.00,WUHU21623XXSP,2013-06-28 16:32:00,
2013-06-28 11:37:00,82.6,63.1,29.01,WSW,247,1.6,5.1,52,0.00,,,0.00,WUHU21623XXSP,2013-06-28 16:37:00,
2013-06-28 11:42:00,82.9,63.5,29.00,NNE,22,0.0,1.6,52,0.00,,,0.00,WUHU21623XXSP,2013-06-28 16:42:00,
2013-06-28 11:47:00,83.1,63.1,29.00,NNE,22,4.7,4.7,51,0.00,,,0.00,WUHU21623XXSP,2013-06-28 16:47:00,
2013-06-28 11:52:00,83.5,63.5,29.00,NE,45,0.0,4.7,51,0.00,,,0.00,WUHU21623XXSP,2013-06-28 16:52:00,
2013-06-28 11:57:00,83.8,63.5,29.00,North,0,2.5,2.5,51,0.00,,,0.00,WUHU21623XXSP,2013-06-28 16:57:00,
2013-06-28 12:02:00,83.8,63.8,29.00,ENE,67,0.0,2.5,51,0.00,,,0.00,WUHU21623XXSP,2013-06-28 17:02:00,
2013-06-28 12:07:00,84.2,63.7,29.00,North,0,2.9,2.9,50,0.00,,,0.00,WUHU21623XXSP,2013-06-28 17:07:00,
2013-06-28 12:12:00,84.0,63.5,29.00,NNE,22,0.0,3.4,50,0.00,,,0.00,WUHU21623XXSP,2013-06-28 17:12:00,
2013-06-28 12:17:00,83.8,63.3,29.00,North,0,0.0,3.4,50,0.00,,,0.00,WUHU21623XXSP,2013-06-28 17:17:00,
2013-06-28 12:22:00,83.5,63.1,28.99,NE,45,0.9,5.4,49,0.00,,,0.00,WUHU21623XXSP,2013-06-28 17:22:00,
2013-06-28 12:27:00,83.3,62.8,28.99,NNE,22,0.0,5.4,50,0.00,,,0.00,WUHU21623XXSP,2013-06-28 17:27:00,
2013-06-28 12:32:00,83.1,62.6,28.99,WNW,292,6.5,6.5,50,0.00,,,0.00,WUHU21623XXSP,2013-06-28 17:32:00,
2013-06-28 12:37:00,83.5,62.3,28.99,North,0,4.7,6.5,49,0.00,,,0.00,WUHU21623XXSP,2013-06-28 17:37:00,
2013-06-28 12:42:00,83.8,63.7,28.99,NW,315,2.0,6.5,51,0.00,,,0.00,WUHU21623XXSP,2013-06-28 17:42:00,
2013-06-28 12:47:00,84.0,63.8,28.99,North,0,3.8,3.8,51,0.00,,,0.00,WUHU21623XXSP,2013-06-28 17:47:00,
2013-06-28 12:52:00,84.0,62.7,28.99,NE,45,0.0,3.8,48,0.00,,,0.00,WUHU21623XXSP,2013-06-28 17:52:00,
2013-06-28 12:57:00,83.8,62.7,28.99,NNE,22,2.7,2.7,49,0.00,,,0.00,WUHU21623XXSP,2013-06-28 17:57:00,
2013-06-28 13:02:00,84.2,63.5,28.99,NE,45,5.8,5.8,50,0.00,,,0.00,WUHU21623XXSP,2013-06-28 18:02:00,
2013-06-28 13:07:00,84.6,63.2,28.98,NE,45,5.8,5.8,49,0.00,,,0.00,WUHU21623XXSP,2013-06-28 18:07:00,
2013-06-28 13:12:00,84.7,62.9,28.98,North,0,0.0,5.8,49,0.00,,,0.00,WUHU21623XXSP,2013-06-28 18:12:00,
2013-06-28 13:17:00,84.9,63.1,28.98,West,270,0.0,1.6,48,0.00,,,0.00,WUHU21623XXSP,2013-06-28 18:17:00,
2013-06-28 13:22:00,84.9,63.7,28.98,NE,45,0.0,1.6,49,0.00,,,0.00,WUHU21623XXSP,2013-06-28 18:22:00,
2013-06-28 13:27:00,84.7,62.3,28.98,NE,45,0.2,2.2,47,0.00,,,0.00,WUHU21623XXSP,2013-06-28 18:27:00,
2013-06-28 13:32:00,84.7,62.3,28.98,North,0,2.2,2.2,47,0.00,,,0.00,WUHU21623XXSP,2013-06-28 18:32:00,
2013-06-28 13:37:00,84.7,62.3,28.98,North,0,2.2,2.2,47,0.00,,,0.00,WUHU21623XXSP,2013-06-28 18:37:00,
2013-06-28 13:42:00,84.7,62.3,28.98,North,0,2.2,2.2,47,0.00,,,0.00,WUHU21623XXSP,2013-06-28 18:42:00,
2013-06-28 13:47:00,84.6,62.0,28.98,NE,45,4.5,4.5,47,0.00,,,0.00,WUHU21623XXSP,2013-06-28 18:47:00,
2013-06-28 13:52:00,84.7,62.3,28.98,NNW,337,10.5,10.5,47,0.00,,,0.00,WUHU21623XXSP,2013-06-28 18:52:00,
2013-06-28 13:57:00,84.9,62.4,28.98,West,270,3.1,10.5,47,0.00,,,0.00,WUHU21623XXSP,2013-06-28 18:57:00,
2013-06-28 14:02:00,85.1,61.3,28.98,ENE,67,4.5,4.7,46,0.00,,,0.00,WUHU21623XXSP,2013-06-28 19:02:00,
2013-06-28 14:07:00,85.3,62.0,28.97,NNW,337,4.5,4.5,46,0.00,,,0.00,WUHU21623XXSP,2013-06-28 19:07:00,
2013-06-28 14:12:00,85.3,62.1,28.97,NNW,337,4.5,4.5,45,0.00,,,0.00,WUHU21623XXSP,2013-06-28 19:12:00,
2013-06-28 14:17:00,85.3,61.5,28.97,NNE,22,0.0,4.5,45,0.00,,,0.00,WUHU21623XXSP,2013-06-28 19:17:00,
2013-06-28 14:22:00,85.3,61.5,28.97,NNE,22,4.3,4.3,45,0.00,,,0.00,WUHU21623XXSP,2013-06-28 19:22:00,
2013-06-28 14:27:00,85.3,61.5,28.97,NNE,22,0.0,5.6,45,0.00,,,0.00,WUHU21623XXSP,2013-06-28 19:27:00,
2013-06-28 14:32:00,85.5,61.0,28.96,NNE,22,2.0,5.6,44,0.00,,,0.00,WUHU21623XXSP,2013-06-28 19:32:00,
2013-06-28 14:37:00,85.6,61.8,28.96,WNW,292,9.8,9.8,45,0.00,,,0.00,WUHU21623XXSP,2013-06-28 19:37:00,
2013-06-28 14:42:00,85.6,61.2,28.96,WNW,292,9.8,9.8,45,0.00,,,0.00,WUHU21623XXSP,2013-06-28 19:42:00,
2013-06-28 14:47:00,85.8,61.8,28.96,North,0,1.6,9.8,44,0.00,,,0.00,WUHU21623XXSP,2013-06-28 19:47:00,
2013-06-28 14:52:00,85.8,62.0,28.96,NW,315,1.1,6.0,45,0.00,,,0.00,WUHU21623XXSP,2013-06-28 19:52:00,
2013-06-28 14:57:00,85.8,62.0,28.96,NNW,337,0.7,1.1,45,0.00,,,0.00,WUHU21623XXSP,2013-06-28 19:57:00,
2013-06-28 15:02:00,85.3,61.5,28.96,NNE,22,4.9,4.9,45,0.00,,,0.00,WUHU21623XXSP,2013-06-28 20:02:00,
2013-06-28 15:07:00,84.9,61.2,28.96,SSE,157,4.5,4.9,45,0.00,,,0.00,WUHU21623XXSP,2013-06-28 20:07:00,
2013-06-28 15:12:00,84.6,61.5,28.96,NE,45,0.0,4.9,46,0.00,,,0.00,WUHU21623XXSP,2013-06-28 20:12:00,
2013-06-28 15:17:00,84.4,61.5,28.95,North,0,0.0,0.9,46,0.00,,,0.00,WUHU21623XXSP,2013-06-28 20:17:00,
2013-06-28 15:22:00,84.0,61.0,28.95,NE,45,4.0,6.3,46,0.00,,,0.00,WUHU21623XXSP,2013-06-28 20:22:00,
2013-06-28 15:27:00,83.5,60.5,28.95,NNE,22,4.3,6.3,46,0.00,,,0.00,WUHU21623XXSP,2013-06-28 20:27:00,
2013-06-28 15:32:00,82.9,60.6,28.95,West,270,4.7,4.7,47,0.00,,,0.00,WUHU21623XXSP,2013-06-28 20:32:00,
2013-06-28 15:37:00,82.6,60.8,28.95,ENE,67,0.0,4.7,48,0.00,,,0.00,WUHU21623XXSP,2013-06-28 20:37:00,
2013-06-28 15:42:00,82.4,60.7,28.95,NE,45,0.0,0.0,48,0.00,,,0.00,WUHU21623XXSP,2013-06-28 20:42:00,
2013-06-28 15:47:00,82.9,61.6,28.95,NNE,22,1.3,2.9,49,0.00,,,0.00,WUHU21623XXSP,2013-06-28 20:47:00,
2013-06-28 15:52:00,82.9,61.8,28.94,NNW,337,8.1,8.1,49,0.00,,,0.00,WUHU21623XXSP,2013-06-28 20:52:00,
2013-06-28 15:57:00,83.1,61.4,28.94,NE,45,2.2,8.1,48,0.00,,,0.00,WUHU21623XXSP,2013-06-28 20:57:00,
2013-06-28 16:02:00,82.8,61.6,28.94,SSE,157,0.0,2.2,49,0.00,,,0.00,WUHU21623XXSP,2013-06-28 21:02:00,
2013-06-28 16:07:00,82.9,61.8,28.94,SSE,157,0.0,1.3,49,0.00,,,0.00,WUHU21623XXSP,2013-06-28 21:07:00,
2013-06-28 16:12:00,82.9,61.8,28.94,SW,225,3.1,3.1,49,0.00,,,0.00,WUHU21623XXSP,2013-06-28 21:12:00,
2013-06-28 16:17:00,82.6,61.4,28.94,NNE,22,0.0,3.1,49,0.00,,,0.00,WUHU21623XXSP,2013-06-28 21:17:00,
2013-06-28 16:22:00,82.6,62.1,28.94,NE,45,0.0,2.2,50,0.00,,,0.00,WUHU21623XXSP,2013-06-28 21:22:00,
2013-06-28 16:27:00,82.6,62.1,28.94,WSW,247,2.0,2.0,50,0.00,,,0.00,WUHU21623XXSP,2013-06-28 21:27:00,
2013-06-28 16:32:00,83.1,62.6,28.93,SW,225,5.8,5.8,50,0.00,,,0.00,WUHU21623XXSP,2013-06-28 21:32:00,
2013-06-28 16:37:00,83.1,62.0,28.94,NE,45,2.7,5.8,49,0.00,,,0.00,WUHU21623XXSP,2013-06-28 21:37:00,
2013-06-28 16:42:00,83.1,62.0,28.94,ENE,67,0.0,2.7,49,0.00,,,0.00,WUHU21623XXSP,2013-06-28 21:42:00,
2013-06-28 16:47:00,83.1,62.0,28.93,NNE,22,0.0,5.4,49,0.00,,,0.00,WUHU21623XXSP,2013-06-28 21:47:00,
2013-06-28 16:52:00,83.3,62.2,28.94,North,0,1.8,5.4,49,0.00,,,0.00,WUHU21623XXSP,2013-06-28 21:52:00,
2013-06-28 16:57:00,83.7,61.7,28.93,NE,45,3.4,3.4,47,0.00,,,0.00,WUHU21623XXSP,2013-06-28 21:57:00,
2013-06-28 17:02:00,83.8,62.1,28.93,North,0,5.1,5.1,48,0.00,,,0.00,WUHU21623XXSP,2013-06-28 22:02:00,
2013-06-28 17:07:00,83.5,61.7,28.94,NE,45,3.1,5.1,48,0.00,,,0.00,WUHU21623XXSP,2013-06-28 22:07:00,
2013-06-28 17:12:00,83.3,61.5,28.93,NE,45,6.7,7.8,48,0.00,,,0.00,WUHU21623XXSP,2013-06-28 22:12:00,
2013-06-28 17:17:00,83.3,61.5,28.93,North,0,6.5,7.8,48,0.00,,,0.00,WUHU21623XXSP,2013-06-28 22:17:00,
2013-06-28 17:22:00,83.5,62.2,28.93,NE,45,4.7,6.5,49,0.00,,,0.00,WUHU21623XXSP,2013-06-28 22:22:00,
2013-06-28 17:27:00,83.5,61.7,28.93,NNE,22,12.1,12.1,48,0.00,,,0.00,WUHU21623XXSP,2013-06-28 22:27:00,
2013-06-28 17:32:00,83.5,61.7,28.93,NNE,22,4.7,12.1,48,0.00,,,0.00,WUHU21623XXSP,2013-06-28 22:32:00,
2013-06-28 17:37:00,83.3,61.5,28.93,NNE,22,4.5,5.6,48,0.00,,,0.00,WUHU21623XXSP,2013-06-28 22:37:00,
2013-06-28 17:42:00,83.3,62.2,28.93,NNE,22,10.3,10.3,49,0.00,,,0.00,WUHU21623XXSP,2013-06-28 22:42:00,
2013-06-28 17:47:00,83.1,62.0,28.93,NE,45,7.2,10.3,49,0.00,,,0.00,WUHU21623XXSP,2013-06-28 22:47:00,
2013-06-28 17:52:00,83.1,61.4,28.93,North,0,6.9,7.2,48,0.00,,,0.00,WUHU21623XXSP,2013-06-28 22:52:00,
2013-06-28 17:57:00,82.8,61.2,28.93,NNE,22,6.9,6.9,48,0.00,,,0.00,WUHU21623XXSP,2013-06-28 22:57:00,
2013-06-28 18:02:00,82.8,61.6,28.93,North,0,3.8,7.6,49,0.00,,,0.00,WUHU21623XXSP,2013-06-28 23:02:00,
2013-06-28 18:07:00,82.8,61.6,28.93,North,0,6.0,7.6,49,0.00,,,0.00,WUHU21623XXSP,2013-06-28 23:07:00,
2013-06-28 18:12:00,82.9,61.8,28.93,NNE,22,3.8,6.0,49,0.00,,,0.00,WUHU21623XXSP,2013-06-28 23:12:00,
2013-06-28 18:17:00,82.6,61.6,28.93,NNE,22,5.4,7.2,49,0.00,,,0.00,WUHU21623XXSP,2013-06-28 23:17:00,
2013-06-28 18:22:00,82.2,61.1,28.93,NW,315,5.8,7.2,49,0.00,,,0.00,WUHU21623XXSP,2013-06-28 23:22:00,
2013-06-28 18:27:00,82.0,60.9,28.93,NNW,337,5.6,7.2,49,0.00,,,0.00,WUHU21623XXSP,2013-06-28 23:27:00,
2013-06-28 18:32:00,81.7,60.6,28.93,NNW,337,2.0,6.9,49,0.00,,,0.00,WUHU21623XXSP,2013-06-28 23:32:00,
2013-06-28 18:37:00,81.7,60.6,28.93,NE,45,5.4,5.6,49,0.00,,,0.00,WUHU21623XXSP,2013-06-28 23:37:00,
2013-06-28 18:42:00,81.7,60.6,28.93,NNE,22,5.4,5.4,49,0.00,,,0.00,WUHU21623XXSP,2013-06-28 23:42:00,
2013-06-28 18:47:00,81.7,60.6,28.93,NNE,22,0.0,5.4,49,0.00,,,0.00,WUHU21623XXSP,2013-06-28 23:47:00,
2013-06-28 18:52:00,81.7,60.6,28.93,NNE,22,5.6,5.6,49,0.00,,,0.00,WUHU21623XXSP,2013-06-28 23:52:00,
2013-06-28 18:57:00,81.3,60.3,28.94,NNW,337,3.1,5.6,49,0.00,,,0.00,WUHU21623XXSP,2013-06-28 23:57:00,
2013-06-28 19:02:00,81.0,60.0,28.94,NNE,22,6.5,12.1,49,0.00,,,0.00,WUHU21623XXSP,2013-06-29 00:02:00,
2013-06-28 19:07:00,80.8,59.8,28.94,North,0,2.5,12.1,49,0.00,,,0.00,WUHU21623XXSP,2013-06-29 00:07:00,
2013-06-28 19:12:00,80.4,60.1,28.94,North,0,7.4,7.4,50,0.00,,,0.00,WUHU21623XXSP,2013-06-29 00:12:00,
2013-06-28 19:17:00,80.1,60.3,28.94,NNE,22,2.2,7.4,51,0.00,,,0.00,WUHU21623XXSP,2013-06-29 00:17:00,
2013-06-28 19:22:00,79.9,60.1,28.94,North,0,1.1,7.4,51,0.00,,,0.00,WUHU21623XXSP,2013-06-29 00:22:00,
2013-06-28 19:27:00,79.5,60.1,28.94,NNE,22,2.2,2.2,51,0.00,,,0.00,WUHU21623XXSP,2013-06-29 00:27:00,
2013-06-28 19:32:00,79.3,59.8,28.94,NNE,22,6.9,6.9,51,0.00,,,0.00,WUHU21623XXSP,2013-06-29 00:32:00,
2013-06-28 19:37:00,79.3,60.2,28.94,North,0,6.5,6.9,52,0.00,,,0.00,WUHU21623XXSP,2013-06-29 00:37:00,
2013-06-28 19:42:00,79.2,60.0,28.94,NNW,337,4.5,7.2,52,0.00,,,0.00,WUHU21623XXSP,2013-06-29 00:42:00,
2013-06-28 19:47:00,78.6,59.8,28.94,NNE,22,0.0,7.2,53,0.00,,,0.00,WUHU21623XXSP,2013-06-29 00:47:00,
2013-06-28 19:52:00,78.6,60.0,28.94,NNE,22,0.0,4.5,53,0.00,,,0.00,WUHU21623XXSP,2013-06-29 00:52:00,
2013-06-28 19:57:00,78.6,60.0,28.94,NNE,22,2.0,2.0,53,0.00,,,0.00,WUHU21623XXSP,2013-06-29 00:57:00,
2013-06-28 20:02:00,78.6,60.0,28.94,NNE,22,5.1,5.1,54,0.00,,,0.00,WUHU21623XXSP,2013-06-29 01:02:00,
2013-06-28 20:07:00,78.4,60.4,28.94,NNE,22,3.8,5.1,54,0.00,,,0.00,WUHU21623XXSP,2013-06-29 01:07:00,
2013-06-28 20:12:00,78.3,60.4,28.95,NNE,22,1.8,5.1,54,0.00,,,0.00,WUHU21623XXSP,2013-06-29 01:12:00,
2013-06-28 20:17:00,78.1,60.0,28.94,NE,45,0.0,2.2,54,0.00,,,0.00,WUHU21623XXSP,2013-06-29 01:17:00,
2013-06-28 20:22:00,77.9,60.4,28.94,NNE,22,3.4,3.4,55,0.00,,,0.00,WUHU21623XXSP,2013-06-29 01:22:00,
2013-06-28 20:27:00,77.5,60.0,28.94,NNE,22,0.0,3.4,55,0.00,,,0.00,WUHU21623XXSP,2013-06-29 01:27:00,
2013-06-28 20:32:00,77.2,59.9,28.94,NNE,22,0.0,3.4,55,0.00,,,0.00,WUHU21623XXSP,2013-06-29 01:32:00,
2013-06-28 20:37:00,77.0,60.0,28.94,NNE,22,0.0,0.0,56,0.00,,,0.00,WUHU21623XXSP,2013-06-29 01:37:00,
2013-06-28 20:42:00,76.8,59.9,28.94,NNE,22,0.0,0.0,56,0.00,,,0.00,WUHU21623XXSP,2013-06-29 01:42:00,
2013-06-28 20:47:00,76.5,59.7,28.94,NNE,22,0.0,0.0,57,0.00,,,0.00,WUHU21623XXSP,2013-06-29 01:47:00,
2013-06-28 20:52:00,76.3,59.9,28.94,NNE,22,3.6,3.6,57,0.00,,,0.00,WUHU21623XXSP,2013-06-29 01:52:00,
2013-06-28 20:57:00,76.1,59.7,28.94,NNE,22,0.2,3.6,57,0.00,,,0.00,WUHU21623XXSP,2013-06-29 01:57:00,
2013-06-28 21:02:00,75.7,59.4,28.94,NNE,22,0.0,1.3,57,0.00,,,0.00,WUHU21623XXSP,2013-06-29 02:02:00,
2013-06-28 21:07:00,75.7,59.4,28.94,NNE,22,0.0,1.3,58,0.00,,,0.00,WUHU21623XXSP,2013-06-29 02:07:00,
2013-06-28 21:12:00,75.4,59.8,28.94,NNE,22,0.0,0.0,58,0.00,,,0.00,WUHU21623XXSP,2013-06-29 02:12:00,
2013-06-28 21:17:00,75.0,59.8,28.94,NNE,22,0.0,1.1,59,0.00,,,0.00,WUHU21623XXSP,2013-06-29 02:17:00,
2013-06-28 21:22:00,75.0,59.8,28.94,NNE,22,0.0,1.1,59,0.00,,,0.00,WUHU21623XXSP,2013-06-29 02:22:00,
2013-06-28 21:27:00,74.8,59.6,28.94,NNE,22,0.0,0.0,59,0.00,,,0.00,WUHU21623XXSP,2013-06-29 02:27:00,
2013-06-28 21:32:00,74.5,59.7,28.94,NNE,22,0.0,0.0,60,0.00,,,0.00,WUHU21623XXSP,2013-06-29 02:32:00,
2013-06-28 21:37:00,74.3,59.5,28.94,NNE,22,0.0,0.0,60,0.00,,,0.00,WUHU21623XXSP,2013-06-29 02:37:00,
2013-06-28 21:42:00,74.1,59.4,28.94,NNE,22,0.0,0.0,60,0.00,,,0.00,WUHU21623XXSP,2013-06-29 02:42:00,
2013-06-28 21:47:00,73.9,59.6,28.94,NNE,22,0.0,0.0,61,0.00,,,0.00,WUHU21623XXSP,2013-06-29 02:47:00,
2013-06-28 21:52:00,73.8,59.4,28.94,NNE,22,0.0,0.0,61,0.00,,,0.00,WUHU21623XXSP,2013-06-29 02:52:00,
2013-06-28 21:57:00,73.6,59.7,28.94,NNE,22,0.0,0.0,62,0.00,,,0.00,WUHU21623XXSP,2013-06-29 02:57:00,
2013-06-28 22:02:00,73.2,59.4,28.94,NNE,22,0.0,0.0,62,0.00,,,0.00,WUHU21623XXSP,2013-06-29 03:02:00,
2013-06-28 22:07:00,73.0,59.2,28.94,NNE,22,0.0,0.0,62,0.00,,,0.00,WUHU21623XXSP,2013-06-29 03:07:00,
2013-06-28 22:12:00,73.0,59.6,28.94,NNE,22,1.1,1.1,63,0.00,,,0.00,WUHU21623XXSP,2013-06-29 03:12:00,
2013-06-28 22:17:00,72.7,59.3,28.95,NNE,22,0.0,1.1,63,0.00,,,0.00,WUHU21623XXSP,2013-06-29 03:17:00,
2013-06-28 22:22:00,72.7,59.3,28.94,NNE,22,0.0,0.0,63,0.00,,,0.00,WUHU21623XXSP,2013-06-29 03:22:00,
2013-06-28 22:27:00,72.5,59.1,28.94,NNE,22,0.0,0.0,63,0.00,,,0.00,WUHU21623XXSP,2013-06-29 03:27:00,
2013-06-28 22:32:00,72.5,59.1,28.94,NNE,22,0.0,0.0,63,0.00,,,0.00,WUHU21623XXSP,2013-06-29 03:32:00,
2013-06-28 22:37:00,72.3,59.0,28.94,NNE,22,0.0,0.0,63,0.00,,,0.00,WUHU21623XXSP,2013-06-29 03:37:00,
2013-06-28 22:42:00,72.3,59.0,28.94,NNE,22,0.0,0.0,63,0.00,,,0.00,WUHU21623XXSP,2013-06-29 03:42:00,
2013-06-28 22:47:00,72.1,59.0,28.94,NNE,22,0.0,0.0,63,0.00,,,0.00,WUHU21623XXSP,2013-06-29 03:47:00,
2013-06-28 22:52:00,72.1,59.3,28.94,NNE,22,0.0,0.0,64,0.00,,,0.00,WUHU21623XXSP,2013-06-29 03:52:00,
2013-06-28 22:57:00,72.0,59.4,28.93,NNE,23,0.0,0.0,64,0.00,,,0.00,WUHU21623XXSP,2013-06-29 03:57:00,
2013-06-28 23:57:00,71.2,59.5,28.93,NE,45,0.0,0.0,66,0.00,,,0.00,WUHU21623XXSP,2013-06-29 04:57:00,